Main page
METAR-TAF:

METAR-TAF

Airports :

Farnborough, England

Farnborough Airport

latitude: 51-17N, longitude: 000-46W, elevation: 65 m

Current weather observation

The report was made 13 minutes ago, at 13:20 UTC
Wind 13 kt from the West with gusts up to 29 kt, varying between West/Southwest and Northwest
Temperature 13°C
Humidity 62%
Pressure 1015 hPa
Visibility 10 km or more
Few clouds at a height of 2800 ft
Scattered clouds at a height of 4300 ft

METAR: EGLF 221320Z 28013G29KT 240V320 9999 FEW028 SCT043 13/06 Q1015

Time: 14:33 (13:33 UTC)

Forecast

The report was made 2 hours and 35 minutes ago, at 10:58 UTC
Forecast valid from 22 at 12 UTC to 22 at 19 UTC
Wind 12 kt from the West
Visibility 10 km or more
Scattered clouds at a height of 2500 ft
Temporary
from 22 at 12 UTC to 22 at 16 UTC
Wind 15 kt from the West with gusts up to 25 kt

TAF: EGLF 221058Z 2212/2219 26012KT 9999 SCT025 TEMPO 2212/2216 27015G25KT

Weather observations and forecasts of more than 4000 airports (METAR and TAF reports).

The available stations are represented by yellow and red dots on the map.

Hover mouse over dot to see the name of the station.

Then click to see weather observations and forecasts.

To change the map : click on the green buttons with a black cross to zoom in, on the green button with a dash to zoom out, or on the green arrows for adjacent maps.


METAR-TAF: